Time;durP1;ratioP1;P1;durP2;ratioP2;P2;SDS_P1;SDS_P2;PMS_P1;PMS_P2;Temp;Humidity;BMP_temperature;BMP_pressure;BME280_temperature;BME280_humidity;BME280_pressure;Samples;Min_cycle;Max_cycle;Signal;HPM_P1;HPM_P2
2024/04/02 00:00:30;;;;;;;7.33;5.73;;;;;;;;;;5074731;28;20948;-76
2024/04/02 00:02:56;;;;;;;5.50;5.10;;;;;;;;;;5076665;28;20522;-74
2024/04/02 00:05:22;;;;;;;6.50;5.37;;;;;;;;;;5070490;28;20498;-76
2024/04/02 00:07:48;;;;;;;5.80;5.23;;;;;;;;;;5080181;28;20232;-75
2024/04/02 00:10:14;;;;;;;6.13;5.63;;;;;;;;;;5069490;28;20484;-73
2024/04/02 00:12:39;;;;;;;5.80;5.30;;;;;;;;;;5074845;28;20233;-76
2024/04/02 00:15:08;;;;;;;5.57;5.07;;;;;;;;;;5067048;28;20815;-76
2024/04/02 00:17:33;;;;;;;6.27;5.67;;;;;;;;;;5075261;28;20461;-74
2024/04/02 00:20:04;;;;;;;5.50;5.10;;;;;;;;;;5074367;28;21036;-76
2024/04/02 00:22:29;;;;;;;5.47;5.03;;;;;;;;;;5076406;28;20224;-75
2024/04/02 00:24:56;;;;;;;4.77;4.40;;;;;;;;;;5074336;28;20436;-75
2024/04/02 00:27:21;;;;;;;5.67;5.27;;;;;;;;;;5075475;28;20209;-75
2024/04/02 00:29:48;;;;;;;6.00;5.40;;;;;;;;;;5076647;28;20483;-75
2024/04/02 00:32:14;;;;;;;4.50;4.10;;;;;;;;;;5072988;28;20271;-74
2024/04/02 00:34:43;;;;;;;6.90;5.17;;;;;;;;;;5070097;28;20570;-75
2024/04/02 00:37:09;;;;;;;5.50;5.10;;;;;;;;;;5070299;28;20972;-75
2024/04/02 00:39:36;;;;;;;6.23;5.70;;;;;;;;;;5074450;28;20448;-75
2024/04/02 00:42:01;;;;;;;5.53;5.00;;;;;;;;;;5074026;28;20220;-73
2024/04/02 00:44:28;;;;;;;5.63;5.03;;;;;;;;;;5076353;28;20452;-75
2024/04/02 00:46:53;;;;;;;5.30;4.80;;;;;;;;;;5073463;28;20213;-75
2024/04/02 00:49:21;;;;;;;5.33;4.83;;;;;;;;;;5073487;28;20491;-74
2024/04/02 00:51:47;;;;;;;8.90;5.67;;;;;;;;;;5073692;28;20201;-75
2024/04/02 00:54:13;;;;;;;5.57;5.07;;;;;;;;;;5076859;28;20982;-75
2024/04/02 00:56:39;;;;;;;8.03;5.30;;;;;;;;;;5080990;28;20213;-75
2024/04/02 00:59:05;;;;;;;6.43;5.20;;;;;;;;;;5072759;28;20809;-74
2024/04/02 01:01:31;;;;;;;5.93;4.67;;;;;;;;;;5074554;28;20213;-76
2024/04/02 01:03:57;;;;;;;6.07;5.40;;;;;;;;;;5075453;28;20470;-76
2024/04/02 01:06:24;;;;;;;5.77;5.00;;;;;;;;;;5071560;28;20599;-76
2024/04/02 01:08:50;;;;;;;6.43;4.93;;;;;;;;;;5075331;28;20453;-75
2024/04/02 01:11:16;;;;;;;5.37;4.80;;;;;;;;;;5073538;28;20507;-75
2024/04/02 01:13:42;;;;;;;5.70;5.20;;;;;;;;;;5074610;28;20998;-76
2024/04/02 01:16:11;;;;;;;5.50;4.97;;;;;;;;;;5074241;28;20226;-76
2024/04/02 01:18:37;;;;;;;5.37;4.87;;;;;;;;;;5075694;28;20458;-72
2024/04/02 01:21:03;;;;;;;6.60;4.63;;;;;;;;;;5078129;28;20519;-75
2024/04/02 01:23:33;;;;;;;8.80;4.17;;;;;;;;;;5077675;28;21150;-76
2024/04/02 01:26:00;;;;;;;7.07;5.13;;;;;;;;;;5076226;28;20232;-75
2024/04/02 01:28:26;;;;;;;6.13;5.60;;;;;;;;;;5079691;28;20478;-74
2024/04/02 01:30:52;;;;;;;7.33;5.20;;;;;;;;;;5077743;28;20526;-74
2024/04/02 01:33:18;;;;;;;5.07;4.67;;;;;;;;;;5078209;28;20440;-76
2024/04/02 01:35:44;;;;;;;5.40;4.87;;;;;;;;;;5073021;28;20256;-75
2024/04/02 01:38:10;;;;;;;6.63;5.10;;;;;;;;;;5072917;28;20467;-76
2024/04/02 01:40:36;;;;;;;4.40;4.10;;;;;;;;;;5076678;28;20213;-76
2024/04/02 01:43:03;;;;;;;4.50;4.13;;;;;;;;;;5076010;28;20464;-73
2024/04/02 01:45:29;;;;;;;5.87;5.33;;;;;;;;;;5072732;28;20214;-76
2024/04/02 01:47:55;;;;;;;4.67;4.27;;;;;;;;;;5077293;28;20486;-75
2024/04/02 01:50:21;;;;;;;6.47;4.27;;;;;;;;;;5078710;28;20237;-75
2024/04/02 01:52:47;;;;;;;10.07;4.80;;;;;;;;;;5084971;28;20448;-75
2024/04/02 01:55:13;;;;;;;5.10;4.70;;;;;;;;;;5075640;28;20226;-75
2024/04/02 01:57:39;;;;;;;5.60;5.10;;;;;;;;;;5075629;28;20453;-76
2024/04/02 02:00:07;;;;;;;5.20;4.77;;;;;;;;;;5077574;28;20234;-75
2024/04/02 02:02:34;;;;;;;4.87;4.57;;;;;;;;;;5075276;28;20460;-74
2024/04/02 02:04:59;;;;;;;4.10;3.70;;;;;;;;;;5078019;28;20915;-76
2024/04/02 02:07:26;;;;;;;5.50;5.00;;;;;;;;;;5082541;28;20467;-76
2024/04/02 02:09:51;;;;;;;6.43;4.90;;;;;;;;;;5077357;28;20230;-74
2024/04/02 02:12:18;;;;;;;7.50;4.40;;;;;;;;;;5074693;28;20445;-74
2024/04/02 02:14:43;;;;;;;5.60;5.07;;;;;;;;;;5072993;28;20206;-75
2024/04/02 02:17:11;;;;;;;8.23;4.87;;;;;;;;;;5075881;28;20468;-76
2024/04/02 02:19:36;;;;;;;5.23;4.83;;;;;;;;;;5067982;28;20233;-76
2024/04/02 02:22:03;;;;;;;4.83;4.53;;;;;;;;;;5077511;28;20463;-74
2024/04/02 02:24:29;;;;;;;4.93;4.53;;;;;;;;;;5073198;28;20703;-76
2024/04/02 02:26:56;;;;;;;5.23;4.80;;;;;;;;;;5079085;28;20448;-76
2024/04/02 02:29:25;;;;;;;5.40;4.33;;;;;;;;;;5073382;28;20784;-75
2024/04/02 02:31:52;;;;;;;5.27;4.87;;;;;;;;;;5077393;28;20459;-76
2024/04/02 02:34:18;;;;;;;4.27;3.97;;;;;;;;;;5074077;28;20872;-75
2024/04/02 02:36:44;;;;;;;5.63;3.90;;;;;;;;;;5072143;28;20948;-73
2024/04/02 02:39:11;;;;;;;4.83;4.43;;;;;;;;;;5076371;28;20490;-73
2024/04/02 02:41:36;;;;;;;4.63;4.27;;;;;;;;;;5071360;28;20207;-75
2024/04/02 02:44:03;;;;;;;4.80;4.40;;;;;;;;;;5079943;28;20881;-73
2024/04/02 02:46:28;;;;;;;6.53;5.17;;;;;;;;;;5075783;28;20249;-75
2024/04/02 02:48:55;;;;;;;5.90;4.93;;;;;;;;;;5080058;28;20452;-78
2024/04/02 02:51:22;;;;;;;6.43;5.27;;;;;;;;;;5078471;28;20234;-78
2024/04/02 02:53:48;;;;;;;4.07;3.73;;;;;;;;;;5073117;28;20532;-75
2024/04/02 02:56:14;;;;;;;4.30;4.00;;;;;;;;;;5077780;28;21578;-76
2024/04/02 02:58:41;;;;;;;4.73;4.33;;;;;;;;;;5077782;28;20490;-77
2024/04/02 03:01:06;;;;;;;4.80;4.20;;;;;;;;;;5067939;28;20449;-73
2024/04/02 03:03:33;;;;;;;4.60;4.17;;;;;;;;;;5077391;28;20545;-76
2024/04/02 03:05:58;;;;;;;5.00;4.20;;;;;;;;;;5074529;28;20232;-75
2024/04/02 03:08:26;;;;;;;7.10;4.37;;;;;;;;;;5079358;28;20445;-75
2024/04/02 03:10:56;;;;;;;4.43;3.87;;;;;;;;;;5072972;28;20261;-76
2024/04/02 03:13:24;;;;;;;4.47;4.10;;;;;;;;;;5079259;28;21044;-76
2024/04/02 03:15:50;;;;;;;4.10;3.70;;;;;;;;;;5076294;28;20524;-74
2024/04/02 03:18:16;;;;;;;5.00;3.67;;;;;;;;;;5070082;28;20483;-76
2024/04/02 03:20:42;;;;;;;4.73;4.33;;;;;;;;;;5080789;28;20401;-76
2024/04/02 03:23:10;;;;;;;3.80;3.60;;;;;;;;;;5073573;28;20455;-73
2024/04/02 03:25:37;;;;;;;4.33;3.87;;;;;;;;;;5075612;28;20216;-74
2024/04/02 03:28:03;;;;;;;5.10;3.97;;;;;;;;;;5076937;28;20498;-78
2024/04/02 03:30:29;;;;;;;4.40;3.50;;;;;;;;;;5073961;28;20546;-76
2024/04/02 03:32:55;;;;;;;3.93;3.63;;;;;;;;;;5079433;28;20448;-76
2024/04/02 03:35:21;;;;;;;4.17;3.87;;;;;;;;;;5074523;28;20230;-74
2024/04/02 03:37:47;;;;;;;4.87;4.37;;;;;;;;;;5076518;28;20459;-74
2024/04/02 03:40:14;;;;;;;4.40;4.10;;;;;;;;;;5074042;28;20230;-75
2024/04/02 03:42:42;;;;;;;4.17;3.77;;;;;;;;;;5073626;28;20885;-74
2024/04/02 03:45:09;;;;;;;4.50;4.10;;;;;;;;;;5074678;28;20452;-74
2024/04/02 03:47:34;;;;;;;4.67;4.00;;;;;;;;;;5072687;28;20487;-75
2024/04/02 03:50:01;;;;;;;5.10;4.67;;;;;;;;;;5075345;28;20491;-75
2024/04/02 03:52:26;;;;;;;5.10;3.60;;;;;;;;;;5077378;28;20240;-74
2024/04/02 03:54:52;;;;;;;4.73;4.33;;;;;;;;;;5077533;28;20448;-75
2024/04/02 03:57:19;;;;;;;4.60;4.17;;;;;;;;;;5075810;28;20688;-76
2024/04/02 03:59:46;;;;;;;4.30;3.70;;;;;;;;;;5077122;28;20475;-74
2024/04/02 04:02:12;;;;;;;4.63;4.30;;;;;;;;;;5074830;28;20558;-75
2024/04/02 04:04:37;;;;;;;4.80;4.43;;;;;;;;;;5071862;28;20457;-76
2024/04/02 04:07:04;;;;;;;5.00;4.60;;;;;;;;;;5070270;28;20479;-77
2024/04/02 04:09:29;;;;;;;5.00;4.60;;;;;;;;;;5074603;28;20293;-76
2024/04/02 04:11:56;;;;;;;6.10;4.47;;;;;;;;;;5077405;28;20480;-76
2024/04/02 04:14:21;;;;;;;6.50;4.97;;;;;;;;;;5077545;28;20229;-77
2024/04/02 04:16:49;;;;;;;5.43;4.80;;;;;;;;;;5074766;28;20458;-76
2024/04/02 04:19:15;;;;;;;5.10;4.67;;;;;;;;;;5073414;28;20249;-74
2024/04/02 04:21:41;;;;;;;4.83;4.30;;;;;;;;;;5074893;28;20480;-73
2024/04/02 04:24:07;;;;;;;4.93;4.47;;;;;;;;;;5075567;28;20210;-76
2024/04/02 04:26:33;;;;;;;5.50;4.00;;;;;;;;;;5076281;28;20460;-76
2024/04/02 04:28:58;;;;;;;9.50;5.17;;;;;;;;;;5077312;28;20233;-76
2024/04/02 04:31:25;;;;;;;7.93;5.57;;;;;;;;;;5068463;28;21249;-75
2024/04/02 04:33:52;;;;;;;6.53;4.97;;;;;;;;;;5073669;28;20202;-73
2024/04/02 04:36:18;;;;;;;6.63;4.53;;;;;;;;;;5076081;28;20494;-75
2024/04/02 04:38:44;;;;;;;6.83;4.67;;;;;;;;;;5073007;28;20504;-77
2024/04/02 04:41:10;;;;;;;4.87;4.23;;;;;;;;;;5067970;28;20444;-75
2024/04/02 04:43:36;;;;;;;6.07;4.67;;;;;;;;;;5076144;28;20233;-74
2024/04/02 04:46:03;;;;;;;5.30;4.90;;;;;;;;;;5081043;28;20484;-74
2024/04/02 04:48:29;;;;;;;7.77;5.30;;;;;;;;;;5073556;28;20225;-77
2024/04/02 04:50:58;;;;;;;5.53;4.50;;;;;;;;;;5075156;28;20580;-75
2024/04/02 04:53:23;;;;;;;5.20;4.70;;;;;;;;;;5074098;28;21183;-76
2024/04/02 04:55:50;;;;;;;5.50;4.63;;;;;;;;;;5073064;28;20452;-74
2024/04/02 04:58:16;;;;;;;5.40;4.93;;;;;;;;;;5075003;28;20215;-75
2024/04/02 05:00:42;;;;;;;5.10;4.70;;;;;;;;;;5071591;28;20452;-76
2024/04/02 05:03:07;;;;;;;4.73;4.33;;;;;;;;;;5074473;28;20709;-75
2024/04/02 05:05:34;;;;;;;5.00;4.60;;;;;;;;;;5076047;28;20868;-76
2024/04/02 05:08:14;;;;;;;6.83;4.47;;;;;;;;;;5074036;28;20206;-76
2024/04/02 05:10:42;;;;;;;5.00;4.50;;;;;;;;;;5077273;28;20490;-75
2024/04/02 05:13:08;;;;;;;4.70;4.40;;;;;;;;;;5076518;28;20474;-76
2024/04/02 05:15:35;;;;;;;4.87;4.10;;;;;;;;;;5067768;28;20456;-76
2024/04/02 05:18:00;;;;;;;4.77;4.30;;;;;;;;;;5066810;28;20804;-76
2024/04/02 05:20:27;;;;;;;4.30;3.87;;;;;;;;;;5072163;28;20484;-76
2024/04/02 05:22:54;;;;;;;4.13;3.73;;;;;;;;;;5073568;28;20237;-76
2024/04/02 05:25:20;;;;;;;4.40;4.00;;;;;;;;;;5075992;28;20448;-76
2024/04/02 05:27:48;;;;;;;5.20;4.43;;;;;;;;;;5076101;28;20484;-77
2024/04/02 05:30:14;;;;;;;4.90;4.60;;;;;;;;;;5073512;28;20492;-75
2024/04/02 05:32:40;;;;;;;4.90;4.50;;;;;;;;;;5066236;28;20469;-75
2024/04/02 05:35:06;;;;;;;5.40;4.87;;;;;;;;;;5071284;28;20463;-75
2024/04/02 05:37:32;;;;;;;5.13;4.73;;;;;;;;;;5074514;28;20253;-76
2024/04/02 05:39:58;;;;;;;5.30;4.90;;;;;;;;;;5075488;28;20444;-76
2024/04/02 05:42:24;;;;;;;5.03;4.57;;;;;;;;;;5080340;28;20759;-75
2024/04/02 05:44:52;;;;;;;5.33;4.43;;;;;;;;;;5083271;28;20456;-76
2024/04/02 05:47:17;;;;;;;4.93;4.53;;;;;;;;;;5073115;28;20368;-76
2024/04/02 05:49:44;;;;;;;5.00;4.70;;;;;;;;;;5076746;28;20448;-76
2024/04/02 05:52:09;;;;;;;5.20;4.70;;;;;;;;;;5076096;28;20241;-72
2024/04/02 05:54:36;;;;;;;5.40;5.00;;;;;;;;;;5070911;28;20448;-76
2024/04/02 05:57:01;;;;;;;6.90;4.83;;;;;;;;;;5078280;28;20214;-74
2024/04/02 05:59:28;;;;;;;4.80;4.40;;;;;;;;;;5071882;28;20452;-75
2024/04/02 06:01:55;;;;;;;4.73;4.33;;;;;;;;;;5072113;28;20241;-76
2024/04/02 06:04:21;;;;;;;5.70;4.60;;;;;;;;;;5075160;28;20460;-77
2024/04/02 06:06:47;;;;;;;4.80;4.43;;;;;;;;;;5077795;28;20475;-77
2024/04/02 06:09:13;;;;;;;8.63;4.30;;;;;;;;;;5076975;28;20994;-74
2024/04/02 06:11:39;;;;;;;6.77;4.30;;;;;;;;;;5075385;28;20225;-77
2024/04/02 06:14:05;;;;;;;5.63;4.83;;;;;;;;;;5074738;28;20447;-76
2024/04/02 06:16:31;;;;;;;5.80;5.20;;;;;;;;;;5074884;28;20588;-74
2024/04/02 06:18:59;;;;;;;7.10;4.87;;;;;;;;;;5079479;28;20467;-75
2024/04/02 06:21:24;;;;;;;4.90;4.50;;;;;;;;;;5087514;28;20264;-75
2024/04/02 06:23:51;;;;;;;5.57;4.93;;;;;;;;;;5077387;28;20444;-75
2024/04/02 06:26:17;;;;;;;5.10;4.60;;;;;;;;;;5076656;28;20351;-74
2024/04/02 06:28:43;;;;;;;8.20;5.17;;;;;;;;;;5071779;28;20819;-76
2024/04/02 06:31:08;;;;;;;5.10;4.63;;;;;;;;;;5073307;28;20259;-77
2024/04/02 06:33:35;;;;;;;5.97;5.17;;;;;;;;;;5071515;28;20440;-77
2024/04/02 06:36:02;;;;;;;5.73;5.23;;;;;;;;;;5074115;28;20252;-75
2024/04/02 06:38:28;;;;;;;6.30;5.23;;;;;;;;;;5075497;28;21102;-75
2024/04/02 06:40:54;;;;;;;6.20;5.80;;;;;;;;;;5079043;28;20989;-77
2024/04/02 06:43:20;;;;;;;6.17;5.60;;;;;;;;;;5075920;28;20440;-76
2024/04/02 06:45:52;;;;;;;6.53;5.90;;;;;;;;;;5075023;28;20245;-76
2024/04/02 06:48:18;;;;;;;6.77;6.17;;;;;;;;;;5078635;28;20499;-74
2024/04/02 06:50:44;;;;;;;7.10;6.40;;;;;;;;;;5076731;28;21169;-77
2024/04/02 06:53:11;;;;;;;6.87;6.23;;;;;;;;;;5075497;28;20459;-76
2024/04/02 06:55:37;;;;;;;7.40;6.80;;;;;;;;;;5071468;28;20201;-77
2024/04/02 06:58:04;;;;;;;7.27;6.63;;;;;;;;;;5073524;28;20501;-74
2024/04/02 07:00:29;;;;;;;6.43;5.90;;;;;;;;;;5071879;28;20637;-77
2024/04/02 07:02:55;;;;;;;11.53;7.77;;;;;;;;;;5071294;28;20451;-74
2024/04/02 07:05:21;;;;;;;8.00;6.60;;;;;;;;;;5077214;28;20245;-70
2024/04/02 07:07:47;;;;;;;8.20;7.50;;;;;;;;;;5076350;28;20455;-70
2024/04/02 07:10:14;;;;;;;7.47;6.80;;;;;;;;;;5072679;28;20206;-70
2024/04/02 07:12:41;;;;;;;8.13;7.43;;;;;;;;;;5074495;28;20450;-71
2024/04/02 07:15:07;;;;;;;8.53;7.20;;;;;;;;;;5074046;28;20448;-70
2024/04/02 07:17:33;;;;;;;8.23;7.43;;;;;;;;;;5071802;28;20503;-70
2024/04/02 07:19:59;;;;;;;8.77;7.00;;;;;;;;;;5076496;28;20478;-73
2024/04/02 07:22:25;;;;;;;10.13;7.60;;;;;;;;;;5075555;28;20202;-73
2024/04/02 07:24:51;;;;;;;10.13;9.00;;;;;;;;;;5074058;28;20440;-72
2024/04/02 07:27:18;;;;;;;8.67;7.47;;;;;;;;;;5070079;28;20236;-73
2024/04/02 07:29:45;;;;;;;9.37;7.67;;;;;;;;;;5078630;28;21157;-72
2024/04/02 07:32:10;;;;;;;10.03;8.53;;;;;;;;;;5079252;28;20640;-73
2024/04/02 07:34:37;;;;;;;9.10;8.20;;;;;;;;;;5077718;28;20937;-73
2024/04/02 07:37:02;;;;;;;10.00;9.20;;;;;;;;;;5084137;28;20266;-73
2024/04/02 07:39:29;;;;;;;11.50;10.40;;;;;;;;;;5073489;28;20874;-73
2024/04/02 07:41:54;;;;;;;10.50;9.70;;;;;;;;;;5077585;28;20213;-73
2024/04/02 07:44:22;;;;;;;10.60;9.57;;;;;;;;;;5080035;28;20456;-73
2024/04/02 07:46:48;;;;;;;12.00;10.90;;;;;;;;;;5070328;28;20247;-67
2024/04/02 07:49:15;;;;;;;11.97;10.80;;;;;;;;;;5078131;28;20463;-71
2024/04/02 07:51:40;;;;;;;12.90;11.80;;;;;;;;;;5077025;28;20527;-76
2024/04/02 07:54:07;;;;;;;12.80;11.03;;;;;;;;;;5077708;28;20439;-76
2024/04/02 07:56:32;;;;;;;12.53;9.93;;;;;;;;;;5080342;28;20242;-77
2024/04/02 07:58:59;;;;;;;10.37;9.37;;;;;;;;;;5077634;28;20456;-74
2024/04/02 08:01:28;;;;;;;10.73;9.63;;;;;;;;;;5073193;28;20214;-74
2024/04/02 08:03:54;;;;;;;11.63;10.57;;;;;;;;;;5079618;28;20444;-74
2024/04/02 08:06:20;;;;;;;9.37;8.57;;;;;;;;;;5073462;28;20514;-74
2024/04/02 08:08:46;;;;;;;13.17;11.90;;;;;;;;;;5078308;28;20448;-74
2024/04/02 08:11:12;;;;;;;11.30;10.20;;;;;;;;;;5077045;28;20226;-74
2024/04/02 08:13:38;;;;;;;12.40;10.23;;;;;;;;;;5074297;28;20459;-74
2024/04/02 08:16:04;;;;;;;11.73;10.73;;;;;;;;;;5076282;28;20432;-74
2024/04/02 08:18:32;;;;;;;12.50;11.13;;;;;;;;;;5076965;28;21024;-74
2024/04/02 08:20:58;;;;;;;11.87;10.50;;;;;;;;;;5077107;28;20484;-74
2024/04/02 08:23:24;;;;;;;15.50;10.47;;;;;;;;;;5075545;28;20452;-74
2024/04/02 08:25:50;;;;;;;12.60;11.30;;;;;;;;;;5076297;28;20277;-74
2024/04/02 08:28:17;;;;;;;12.90;11.73;;;;;;;;;;5073320;28;20472;-74
2024/04/02 08:30:43;;;;;;;12.17;11.10;;;;;;;;;;5072387;28;20225;-74
2024/04/02 08:33:09;;;;;;;12.67;11.47;;;;;;;;;;5078191;28;20885;-74
2024/04/02 08:35:36;;;;;;;12.60;11.53;;;;;;;;;;5076829;28;20232;-74
2024/04/02 08:38:02;;;;;;;14.77;12.17;;;;;;;;;;5080236;28;20547;-74
2024/04/02 08:40:32;;;;;;;13.63;12.40;;;;;;;;;;5076194;28;20460;-74
2024/04/02 08:43:00;;;;;;;15.20;12.97;;;;;;;;;;5076701;28;20463;-73
2024/04/02 08:45:26;;;;;;;17.73;14.23;;;;;;;;;;5076588;28;20769;-74
2024/04/02 08:47:53;;;;;;;14.73;13.23;;;;;;;;;;5078732;28;20464;-74
2024/04/02 08:50:19;;;;;;;15.40;13.90;;;;;;;;;;5074924;28;20654;-74
2024/04/02 08:52:47;;;;;;;12.57;11.27;;;;;;;;;;5077685;28;20459;-73
2024/04/02 08:55:13;;;;;;;12.63;10.70;;;;;;;;;;5077096;28;20452;-74
2024/04/02 08:57:40;;;;;;;16.10;14.50;;;;;;;;;;5078515;28;20842;-74
2024/04/02 09:00:06;;;;;;;16.00;13.83;;;;;;;;;;5075801;28;20460;-74
2024/04/02 09:02:33;;;;;;;17.27;13.80;;;;;;;;;;5076796;28;20459;-74
2024/04/02 09:04:59;;;;;;;16.20;14.60;;;;;;;;;;5075654;28;20445;-74
2024/04/02 09:07:25;;;;;;;15.47;13.87;;;;;;;;;;5075369;28;20460;-74
2024/04/02 09:09:52;;;;;;;15.27;13.50;;;;;;;;;;5076510;28;20210;-74
2024/04/02 09:12:20;;;;;;;16.57;14.47;;;;;;;;;;5077585;28;20475;-74
2024/04/02 09:14:46;;;;;;;14.73;13.10;;;;;;;;;;5076031;28;20444;-74
2024/04/02 09:17:13;;;;;;;14.10;12.67;;;;;;;;;;5076224;28;20543;-74
2024/04/02 09:19:38;;;;;;;15.80;12.90;;;;;;;;;;5076287;28;20498;-74
2024/04/02 09:22:05;;;;;;;13.60;12.30;;;;;;;;;;5077905;28;20460;-74
2024/04/02 09:24:30;;;;;;;14.03;12.10;;;;;;;;;;5078628;28;20215;-75
2024/04/02 09:26:58;;;;;;;16.90;13.40;;;;;;;;;;5077957;28;20444;-74
2024/04/02 09:29:24;;;;;;;14.43;12.83;;;;;;;;;;5076904;28;20217;-74
2024/04/02 09:31:51;;;;;;;13.20;11.90;;;;;;;;;;5076144;28;20499;-75
2024/04/02 09:34:17;;;;;;;14.03;11.77;;;;;;;;;;5078890;28;20213;-74
2024/04/02 09:36:44;;;;;;;13.10;11.80;;;;;;;;;;5076678;28;20459;-75
2024/04/02 09:39:10;;;;;;;14.10;11.73;;;;;;;;;;5078414;28;20462;-74
2024/04/02 09:41:38;;;;;;;15.97;12.20;;;;;;;;;;5080875;28;20723;-75
2024/04/02 09:44:07;;;;;;;14.60;13.13;;;;;;;;;;5080965;28;20460;-75
2024/04/02 09:46:34;;;;;;;12.90;11.80;;;;;;;;;;5079626;28;20474;-74
2024/04/02 09:49:00;;;;;;;15.30;11.70;;;;;;;;;;5073287;28;20452;-75
2024/04/02 09:51:26;;;;;;;11.70;10.50;;;;;;;;;;5073875;28;20476;-75
2024/04/02 09:53:53;;;;;;;11.60;10.43;;;;;;;;;;5079568;28;20452;-74
2024/04/02 09:56:20;;;;;;;12.53;9.47;;;;;;;;;;5080746;28;20473;-74
2024/04/02 09:58:46;;;;;;;11.00;9.90;;;;;;;;;;5080045;28;20487;-74
2024/04/02 10:01:15;;;;;;;12.50;9.40;;;;;;;;;;5075760;28;20448;-74
2024/04/02 10:03:42;;;;;;;11.30;10.13;;;;;;;;;;5079729;28;20213;-75
2024/04/02 10:06:09;;;;;;;10.60;9.50;;;;;;;;;;5077337;28;20931;-75
2024/04/02 10:08:35;;;;;;;10.20;9.10;;;;;;;;;;5075652;28;20460;-74
2024/04/02 10:11:03;;;;;;;14.40;9.20;;;;;;;;;;5076408;28;20538;-74
2024/04/02 10:13:33;;;;;;;8.90;8.00;;;;;;;;;;5079984;28;20456;-74
2024/04/02 10:16:00;;;;;;;7.87;7.17;;;;;;;;;;5079101;28;20460;-74
2024/04/02 10:18:29;;;;;;;8.20;6.77;;;;;;;;;;5080212;28;20464;-75
2024/04/02 10:20:56;;;;;;;13.63;6.20;;;;;;;;;;5099093;28;20478;-78
2024/04/02 10:23:22;;;;;;;6.80;6.13;;;;;;;;;;5103433;28;20548;-76
2024/04/02 10:25:49;;;;;;;8.60;6.70;;;;;;;;;;5099904;28;20490;-77
2024/04/02 10:28:22;;;;;;;7.70;6.93;;;;;;;;;;5108311;28;20481;-79
2024/04/02 10:30:48;;;;;;;12.57;6.80;;;;;;;;;;5100202;28;20458;-77
2024/04/02 10:33:17;;;;;;;8.90;6.43;;;;;;;;;;5111712;28;20493;-77
2024/04/02 10:35:45;;;;;;;6.67;5.97;;;;;;;;;;5095363;28;20505;-78
2024/04/02 10:38:10;;;;;;;9.93;6.37;;;;;;;;;;5093166;28;20912;-77
2024/04/02 10:40:38;;;;;;;8.17;6.77;;;;;;;;;;5099590;28;20488;-75
2024/04/02 10:43:04;;;;;;;7.80;7.10;;;;;;;;;;5099646;28;20245;-78
2024/04/02 10:45:31;;;;;;;10.73;7.40;;;;;;;;;;5100509;28;20813;-78
2024/04/02 10:47:56;;;;;;;7.00;6.40;;;;;;;;;;5093488;28;20456;-78
2024/04/02 10:50:24;;;;;;;9.60;6.97;;;;;;;;;;5100739;28;20539;-78
2024/04/02 10:52:51;;;;;;;6.97;6.40;;;;;;;;;;5099111;28;20248;-76
2024/04/02 10:55:18;;;;;;;7.20;6.03;;;;;;;;;;5099228;28;20502;-79
2024/04/02 10:57:43;;;;;;;7.77;6.10;;;;;;;;;;5098618;28;20455;-74
2024/04/02 11:00:11;;;;;;;8.03;6.33;;;;;;;;;;5095147;28;20835;-74
2024/04/02 11:02:37;;;;;;;9.23;6.50;;;;;;;;;;5097811;28;20246;-74
2024/04/02 11:05:05;;;;;;;6.90;6.20;;;;;;;;;;5098927;28;20481;-74
2024/04/02 11:07:30;;;;;;;8.07;6.33;;;;;;;;;;5098202;28;20480;-74
2024/04/02 11:09:59;;;;;;;10.43;6.77;;;;;;;;;;5096412;28;20867;-73
2024/04/02 11:12:24;;;;;;;8.90;6.03;;;;;;;;;;5098813;28;20228;-74
2024/04/02 11:14:52;;;;;;;7.10;6.40;;;;;;;;;;5094923;28;20570;-74
2024/04/02 11:17:18;;;;;;;11.63;6.43;;;;;;;;;;5097376;28;20362;-75
2024/04/02 11:19:44;;;;;;;8.73;7.37;;;;;;;;;;5092782;28;20477;-74
2024/04/02 11:25:00;;;;;;;8.33;7.23;;;;;;;;;;5096326;28;20534;-74
2024/04/02 11:27:29;;;;;;;13.60;6.57;;;;;;;;;;5096548;28;20455;-74
2024/04/02 11:29:56;;;;;;;7.37;6.67;;;;;;;;;;5103998;28;20477;-74
2024/04/02 11:32:21;;;;;;;7.00;6.37;;;;;;;;;;5098170;28;20544;-74
2024/04/02 11:34:54;;;;;;;7.13;6.10;;;;;;;;;;5099333;28;20443;-74
2024/04/02 11:37:20;;;;;;;6.90;6.27;;;;;;;;;;5091167;28;20205;-74
2024/04/02 11:39:46;;;;;;;7.07;6.07;;;;;;;;;;5093851;28;20455;-74
2024/04/02 11:42:12;;;;;;;6.93;6.27;;;;;;;;;;5098069;28;20201;-73
2024/04/02 11:44:41;;;;;;;14.13;5.97;;;;;;;;;;5094303;28;20984;-75
2024/04/02 11:47:07;;;;;;;6.43;5.93;;;;;;;;;;5098496;28;20311;-74
2024/04/02 11:49:34;;;;;;;8.57;6.50;;;;;;;;;;5092973;28;20463;-74
2024/04/02 11:51:59;;;;;;;8.57;6.33;;;;;;;;;;5090758;28;20483;-74
2024/04/02 11:54:25;;;;;;;7.47;6.63;;;;;;;;;;5094948;28;20442;-74
2024/04/02 12:02:27;;;;;;;6.57;5.90;;;;;;;;;;5090107;28;20450;-74
2024/04/02 12:04:53;;;;;;;10.30;6.70;;;;;;;;;;5092984;28;20443;-74
2024/04/02 12:07:19;;;;;;;6.90;6.20;;;;;;;;;;5096454;28;20455;-74
2024/04/02 12:09:49;;;;;;;9.60;6.37;;;;;;;;;;5095464;28;21021;-74
2024/04/02 12:12:15;;;;;;;8.20;5.80;;;;;;;;;;5096766;28;20282;-74
2024/04/02 12:14:43;;;;;;;7.07;6.03;;;;;;;;;;5096375;28;20867;-74
2024/04/02 12:17:08;;;;;;;9.60;6.10;;;;;;;;;;5096031;28;20209;-74
2024/04/02 12:19:35;;;;;;;6.43;5.70;;;;;;;;;;5093201;28;20506;-74
2024/04/02 12:22:01;;;;;;;6.70;6.00;;;;;;;;;;5097082;28;20201;-74
2024/04/02 12:24:27;;;;;;;8.30;5.63;;;;;;;;;;5091143;28;20494;-74
2024/04/02 12:26:53;;;;;;;6.97;5.73;;;;;;;;;;5097780;28;20439;-74
2024/04/02 12:29:19;;;;;;;6.37;5.77;;;;;;;;;;5100715;28;20231;-74
2024/04/02 12:31:47;;;;;;;5.97;5.57;;;;;;;;;;5105098;28;20490;-74
2024/04/02 12:34:12;;;;;;;6.30;5.50;;;;;;;;;;5097764;28;20201;-73
2024/04/02 12:36:39;;;;;;;6.10;5.60;;;;;;;;;;5097449;28;20461;-73
2024/04/02 12:39:04;;;;;;;6.00;5.50;;;;;;;;;;5095457;28;20229;-73
2024/04/02 12:41:31;;;;;;;6.13;5.63;;;;;;;;;;5097993;28;20459;-73
2024/04/02 12:43:57;;;;;;;6.60;5.80;;;;;;;;;;5096338;28;20205;-74
2024/04/02 12:46:24;;;;;;;5.97;5.33;;;;;;;;;;5089112;28;20465;-73
2024/04/02 12:48:51;;;;;;;5.90;5.40;;;;;;;;;;5095916;28;20463;-73
2024/04/02 12:51:17;;;;;;;8.23;4.80;;;;;;;;;;5093821;28;20985;-73
2024/04/02 12:53:43;;;;;;;5.30;4.80;;;;;;;;;;5096155;28;20451;-74
2024/04/02 12:56:10;;;;;;;6.87;6.27;;;;;;;;;;5096511;28;20489;-73
2024/04/02 12:58:35;;;;;;;6.87;5.13;;;;;;;;;;5096412;28;20204;-73
2024/04/02 13:01:03;;;;;;;5.40;4.67;;;;;;;;;;5092489;28;20448;-73
2024/04/02 13:03:28;;;;;;;8.80;5.90;;;;;;;;;;5095906;28;20209;-73
2024/04/02 13:05:56;;;;;;;6.40;5.80;;;;;;;;;;5100651;28;20475;-73
2024/04/02 13:08:21;;;;;;;6.90;6.30;;;;;;;;;;5095836;28;20255;-73
2024/04/02 13:10:48;;;;;;;6.83;6.17;;;;;;;;;;5096823;28;20447;-74
2024/04/02 13:13:14;;;;;;;11.67;6.40;;;;;;;;;;5097721;28;20235;-74
2024/04/02 13:15:41;;;;;;;7.30;6.50;;;;;;;;;;5098987;28;20443;-74
2024/04/02 13:18:07;;;;;;;5.93;5.53;;;;;;;;;;5103850;28;20504;-74
2024/04/02 13:20:33;;;;;;;5.90;5.37;;;;;;;;;;5102062;28;20482;-74
2024/04/02 13:23:00;;;;;;;8.53;7.73;;;;;;;;;;5103146;28;20235;-74
2024/04/02 13:25:27;;;;;;;7.00;6.30;;;;;;;;;;5103126;28;20446;-74
2024/04/02 13:27:52;;;;;;;7.60;6.00;;;;;;;;;;5099154;28;20486;-74
2024/04/02 13:30:19;;;;;;;6.50;6.00;;;;;;;;;;5101085;28;20462;-74
2024/04/02 13:32:44;;;;;;;8.20;6.30;;;;;;;;;;5100250;28;20242;-74
2024/04/02 13:35:11;;;;;;;6.80;6.23;;;;;;;;;;5100342;28;20446;-74
2024/04/02 13:37:38;;;;;;;6.70;6.20;;;;;;;;;;5099818;28;20201;-74
2024/04/02 13:40:06;;;;;;;8.37;7.23;;;;;;;;;;5099541;28;20454;-73
2024/04/02 13:42:32;;;;;;;5.93;5.53;;;;;;;;;;5098762;28;20449;-74
2024/04/02 13:44:58;;;;;;;7.40;6.00;;;;;;;;;;5098953;28;20529;-73
2024/04/02 13:47:24;;;;;;;6.00;5.40;;;;;;;;;;5098967;28;20292;-73
2024/04/02 13:49:51;;;;;;;7.10;6.40;;;;;;;;;;5102719;28;20512;-73
2024/04/02 13:52:17;;;;;;;6.20;5.77;;;;;;;;;;5102266;28;20808;-73
2024/04/02 13:54:47;;;;;;;6.67;6.07;;;;;;;;;;5099305;28;20466;-74
2024/04/02 13:57:13;;;;;;;6.27;5.63;;;;;;;;;;5100171;28;20225;-73
2024/04/02 13:59:40;;;;;;;7.00;6.40;;;;;;;;;;5100176;28;20469;-74
2024/04/02 14:02:05;;;;;;;6.70;6.13;;;;;;;;;;5093393;28;20490;-72
2024/04/02 14:04:32;;;;;;;8.00;6.00;;;;;;;;;;5099574;28;20447;-72
2024/04/02 14:06:57;;;;;;;7.63;5.27;;;;;;;;;;5098293;28;20201;-73
2024/04/02 14:09:24;;;;;;;7.40;4.67;;;;;;;;;;5102331;28;20443;-73
2024/04/02 14:11:49;;;;;;;5.27;4.87;;;;;;;;;;5097181;28;20274;-73
2024/04/02 14:14:17;;;;;;;4.70;4.40;;;;;;;;;;5097658;28;20431;-73
2024/04/02 14:16:42;;;;;;;5.07;4.60;;;;;;;;;;5097538;28;20258;-74
2024/04/02 14:19:09;;;;;;;4.63;4.33;;;;;;;;;;5098629;28;20505;-74
2024/04/02 14:21:34;;;;;;;5.13;4.63;;;;;;;;;;5102982;28;20267;-73
2024/04/02 14:24:02;;;;;;;5.03;4.63;;;;;;;;;;5098850;28;20454;-74
2024/04/02 14:26:27;;;;;;;4.57;4.00;;;;;;;;;;5098396;28;20216;-74
2024/04/02 14:28:54;;;;;;;5.07;4.77;;;;;;;;;;5099005;28;20446;-74
2024/04/02 14:31:24;;;;;;;5.27;4.87;;;;;;;;;;5099510;28;20220;-74
2024/04/02 14:33:50;;;;;;;5.33;4.90;;;;;;;;;;5100696;28;20476;-74
2024/04/02 14:36:16;;;;;;;4.97;4.50;;;;;;;;;;5094226;28;20507;-75
2024/04/02 14:38:43;;;;;;;4.70;4.30;;;;;;;;;;5098260;28;20459;-69
2024/04/02 14:41:08;;;;;;;4.17;3.87;;;;;;;;;;5098264;28;20227;-74